Time;durP1;ratioP1;P1;durP2;ratioP2;P2;SDS_P1;SDS_P2;PMS_P1;PMS_P2;Temp;Humidity;BMP_temperature;BMP_pressure;BME280_temperature;BME280_humidity;BME280_pressure;Samples;Min_cycle;Max_cycle;Signal;HPM_P1;HPM_P2
2022/03/16 00:00:10;;;;;;;93.57;52.35;;;0.70;99.90;;;;;;4996950;28;20053;-69
2022/03/16 00:02:44;;;;;;;89.40;52.25;;;0.80;99.90;;;;;;4994588;28;20053;-70
2022/03/16 00:05:12;;;;;;;94.18;50.17;;;0.80;99.90;;;;;;4996829;28;20092;-75
2022/03/16 00:07:39;;;;;;;105.05;52.13;;;0.70;99.90;;;;;;4996217;28;20139;-65
2022/03/16 00:10:08;;;;;;;86.20;47.40;;;0.80;99.90;;;;;;4996331;28;20610;-66
2022/03/16 00:12:39;;;;;;;87.35;49.60;;;0.70;99.90;;;;;;4995867;28;21036;-72
2022/03/16 00:15:06;;;;;;;91.55;49.75;;;0.70;99.90;;;;;;4995127;28;20123;-73
2022/03/16 00:17:33;;;;;;;109.68;49.97;;;0.80;99.90;;;;;;4995916;28;20554;-69
2022/03/16 00:20:00;;;;;;;92.88;53.10;;;0.70;99.90;;;;;;4994664;28;20062;-70
2022/03/16 00:22:27;;;;;;;104.47;53.60;;;0.70;99.90;;;;;;4996588;28;20052;-67
2022/03/16 00:24:54;;;;;;;96.50;51.92;;;0.70;99.90;;;;;;4993734;28;20132;-66
2022/03/16 00:27:21;;;;;;;92.05;49.72;;;0.70;99.90;;;;;;4996053;28;20046;-73
2022/03/16 00:29:49;;;;;;;99.85;52.78;;;0.70;99.90;;;;;;4996766;28;20054;-69
2022/03/16 00:32:16;;;;;;;132.10;54.40;;;0.70;99.90;;;;;;4996900;28;20949;-71
2022/03/16 00:34:42;;;;;;;117.63;51.65;;;0.70;99.90;;;;;;4995140;28;20472;-73
2022/03/16 00:37:09;;;;;;;101.90;52.28;;;0.60;99.90;;;;;;4998418;28;20074;-67
2022/03/16 00:39:37;;;;;;;103.82;53.65;;;0.60;99.90;;;;;;4997215;28;20487;-68
2022/03/16 00:42:05;;;;;;;93.78;53.55;;;0.60;99.90;;;;;;4998425;28;20148;-68
2022/03/16 00:44:35;;;;;;;87.40;49.17;;;0.60;99.90;;;;;;5000305;28;20049;-67
2022/03/16 00:47:06;;;;;;;111.72;53.78;;;0.60;99.90;;;;;;5011392;28;20049;-70
2022/03/16 00:49:33;;;;;;;98.20;49.72;;;0.60;99.90;;;;;;4999645;28;20061;-67
2022/03/16 00:52:01;;;;;;;113.13;53.42;;;0.60;99.90;;;;;;5001721;28;20046;-67
2022/03/16 00:54:28;;;;;;;99.97;52.97;;;0.60;99.90;;;;;;4998071;28;20042;-69
2022/03/16 00:56:56;;;;;;;101.70;50.65;;;0.60;99.90;;;;;;4996506;28;20046;-72
2022/03/16 00:59:23;;;;;;;111.18;51.58;;;0.60;99.90;;;;;;4999534;28;20122;-70
2022/03/16 01:01:50;;;;;;;97.85;55.15;;;0.50;99.90;;;;;;5006133;28;20061;-73
2022/03/16 01:04:17;;;;;;;85.28;49.55;;;0.60;99.90;;;;;;5002909;28;20052;-69
2022/03/16 01:06:44;;;;;;;88.53;52.47;;;0.60;99.90;;;;;;5000112;28;20064;-70
2022/03/16 01:09:11;;;;;;;95.90;51.10;;;0.60;99.90;;;;;;5001932;28;20768;-73
2022/03/16 01:11:38;;;;;;;104.35;51.70;;;0.60;99.90;;;;;;5001855;28;20406;-67
2022/03/16 01:14:06;;;;;;;109.28;52.75;;;0.60;99.90;;;;;;5002483;28;20069;-71
2022/03/16 01:16:35;;;;;;;89.93;54.90;;;0.60;99.90;;;;;;5001574;28;21327;-67
2022/03/16 01:19:03;;;;;;;91.50;54.80;;;0.60;99.90;;;;;;5000708;28;20057;-65
2022/03/16 01:21:30;;;;;;;88.97;53.65;;;0.50;99.90;;;;;;5002883;28;20145;-68
2022/03/16 01:23:58;;;;;;;83.60;50.88;;;0.60;99.90;;;;;;4998394;28;20507;-67
2022/03/16 01:26:25;;;;;;;88.30;49.25;;;0.60;99.90;;;;;;4998975;28;20199;-70
2022/03/16 01:28:52;;;;;;;81.45;49.03;;;0.60;99.90;;;;;;4996371;28;20062;-66
2022/03/16 01:31:21;;;;;;;82.55;51.00;;;0.60;99.90;;;;;;4999095;28;20064;-66
2022/03/16 01:33:49;;;;;;;84.60;51.65;;;0.60;99.90;;;;;;4997615;28;20076;-70
2022/03/16 01:36:16;;;;;;;100.75;52.53;;;0.60;99.90;;;;;;4998536;28;20141;-70
2022/03/16 01:38:43;;;;;;;89.63;52.65;;;0.60;99.90;;;;;;4998301;28;20053;-70
2022/03/16 01:41:10;;;;;;;89.18;52.42;;;0.60;99.90;;;;;;4998939;28;20136;-73
2022/03/16 01:43:37;;;;;;;98.65;51.72;;;0.60;99.90;;;;;;4999699;28;20064;-65
2022/03/16 01:46:04;;;;;;;89.97;50.83;;;0.50;99.90;;;;;;4999479;28;20050;-79
2022/03/16 01:48:31;;;;;;;80.13;51.20;;;0.50;99.90;;;;;;4998368;28;20061;-69
2022/03/16 01:50:58;;;;;;;81.90;51.17;;;0.50;99.90;;;;;;4996206;28;20051;-75
2022/03/16 01:53:26;;;;;;;98.95;53.30;;;0.50;99.90;;;;;;4998162;28;20411;-65
2022/03/16 01:55:54;;;;;;;82.68;51.42;;;0.50;99.90;;;;;;4997015;28;20042;-70
2022/03/16 01:58:21;;;;;;;94.70;55.60;;;0.50;99.90;;;;;;4995946;28;20101;-68
2022/03/16 02:00:48;;;;;;;84.05;53.25;;;0.50;99.90;;;;;;4995010;28;20054;-72
2022/03/16 02:03:16;;;;;;;92.93;54.38;;;0.50;99.90;;;;;;4997633;28;20888;-68
2022/03/16 02:05:45;;;;;;;87.13;54.75;;;0.50;99.90;;;;;;4998708;28;20087;-69
2022/03/16 02:08:12;;;;;;;85.50;54.47;;;0.50;99.90;;;;;;4998819;28;20147;-77
2022/03/16 02:10:40;;;;;;;94.07;53.97;;;0.60;99.90;;;;;;5000944;28;20050;-72
2022/03/16 02:13:10;;;;;;;98.75;54.75;;;0.60;99.90;;;;;;5002999;28;20081;-70
2022/03/16 02:15:37;;;;;;;98.30;56.75;;;0.50;99.90;;;;;;5001314;28;20112;-69
2022/03/16 02:18:05;;;;;;;93.60;55.95;;;0.50;99.90;;;;;;4999777;28;20050;-66
2022/03/16 02:20:32;;;;;;;89.85;54.53;;;0.50;99.90;;;;;;5004402;28;20131;-68
2022/03/16 02:23:01;;;;;;;81.03;54.65;;;0.60;99.90;;;;;;4990806;28;20365;-70
2022/03/16 02:25:29;;;;;;;70.85;45.03;;;0.60;99.90;;;;;;4989982;28;20081;-67
2022/03/16 02:27:57;;;;;;;83.03;50.08;;;0.60;99.90;;;;;;5000363;28;20070;-73
2022/03/16 02:30:26;;;;;;;94.05;56.03;;;0.60;99.90;;;;;;5000377;28;20570;-74
2022/03/16 02:32:53;;;;;;;89.25;53.13;;;0.60;99.90;;;;;;4998098;28;20119;-73
2022/03/16 02:35:21;;;;;;;94.57;57.20;;;0.60;99.90;;;;;;5001757;28;20207;-68
2022/03/16 02:37:48;;;;;;;92.97;55.70;;;0.60;99.90;;;;;;5002871;28;20049;-71
2022/03/16 02:40:20;;;;;;;96.80;54.85;;;0.60;99.90;;;;;;5000060;28;20074;-69
2022/03/16 02:42:49;;;;;;;108.00;58.75;;;0.60;99.90;;;;;;4998698;28;20721;-67
2022/03/16 02:45:16;;;;;;;84.75;55.75;;;0.60;99.90;;;;;;5000067;28;20054;-70
2022/03/16 02:47:43;;;;;;;117.25;57.72;;;0.60;99.90;;;;;;5000110;28;20073;-76
2022/03/16 02:50:12;;;;;;;99.63;57.40;;;0.70;99.90;;;;;;5000027;28;20057;-69
2022/03/16 02:52:40;;;;;;;91.78;53.95;;;0.60;99.90;;;;;;5000355;28;20145;-66
2022/03/16 02:55:07;;;;;;;88.32;55.75;;;0.60;99.90;;;;;;4997858;28;20144;-68
2022/03/16 02:57:34;;;;;;;95.50;56.25;;;0.70;99.90;;;;;;5002119;28;20127;-71
2022/03/16 03:00:04;;;;;;;92.93;58.05;;;0.70;99.90;;;;;;4995104;28;20191;-66
2022/03/16 03:02:31;;;;;;;90.28;54.58;;;0.70;99.90;;;;;;4995884;28;20080;-67
2022/03/16 03:04:58;;;;;;;95.75;56.45;;;0.70;99.90;;;;;;4998629;28;20107;-82
2022/03/16 03:07:25;;;;;;;110.80;57.22;;;0.70;99.90;;;;;;4985041;28;20947;-68
2022/03/16 03:09:52;;;;;;;110.32;58.38;;;0.70;99.90;;;;;;4992103;28;20171;-66
2022/03/16 03:12:19;;;;;;;91.35;54.95;;;0.70;99.90;;;;;;5003680;28;20050;-69
2022/03/16 03:14:46;;;;;;;96.40;58.35;;;0.70;99.90;;;;;;4997181;28;20151;-76
2022/03/16 03:17:13;;;;;;;96.45;54.47;;;0.80;99.90;;;;;;4998752;28;20141;-74
2022/03/16 03:19:41;;;;;;;100.45;58.60;;;0.80;99.90;;;;;;4982889;28;20050;-77
2022/03/16 03:22:09;;;;;;;96.88;56.30;;;0.80;99.90;;;;;;4993016;28;20116;-75
2022/03/16 03:24:36;;;;;;;93.88;57.20;;;0.70;99.90;;;;;;4983634;28;21930;-68
2022/03/16 03:27:03;;;;;;;86.85;52.55;;;0.80;99.90;;;;;;4983484;28;20057;-73
2022/03/16 03:29:30;;;;;;;122.32;59.35;;;0.80;99.90;;;;;;4998387;28;20207;-67
2022/03/16 03:31:57;;;;;;;92.38;54.85;;;0.80;99.90;;;;;;4995882;28;20077;-69
2022/03/16 03:34:24;;;;;;;115.30;59.53;;;0.80;99.90;;;;;;4995764;28;20049;-73
2022/03/16 03:36:51;;;;;;;103.00;57.17;;;0.80;99.90;;;;;;4995317;28;20071;-69
2022/03/16 03:39:18;;;;;;;98.00;55.70;;;0.80;99.90;;;;;;5001228;28;20081;-69
2022/03/16 03:41:45;;;;;;;99.68;57.97;;;0.80;99.90;;;;;;5003615;28;20046;-72
2022/03/16 03:44:12;;;;;;;89.45;57.95;;;0.80;99.90;;;;;;5000476;28;20133;-68
2022/03/16 03:46:39;;;;;;;100.50;55.85;;;0.80;99.90;;;;;;5001362;28;20081;-70
2022/03/16 03:49:06;;;;;;;89.32;53.75;;;0.80;99.90;;;;;;4998834;28;20145;-70
2022/03/16 03:51:33;;;;;;;99.95;57.72;;;0.90;99.90;;;;;;4999400;28;20057;-70
2022/03/16 03:54:00;;;;;;;101.53;57.83;;;0.80;99.90;;;;;;4998664;28;20054;-69
2022/03/16 03:56:27;;;;;;;100.28;58.67;;;0.80;99.90;;;;;;4999696;28;20132;-70
2022/03/16 03:58:54;;;;;;;93.28;55.22;;;0.80;99.90;;;;;;4997650;28;20614;-67
2022/03/16 04:01:21;;;;;;;110.82;58.67;;;0.80;99.90;;;;;;4999199;28;20066;-71
2022/03/16 04:03:50;;;;;;;92.65;53.55;;;0.80;99.90;;;;;;4998612;28;20115;-76
2022/03/16 04:06:16;;;;;;;103.63;60.47;;;0.90;99.90;;;;;;4999517;28;20046;-68
2022/03/16 04:08:43;;;;;;;98.35;56.88;;;0.90;99.90;;;;;;4998412;28;20077;-70
2022/03/16 04:11:11;;;;;;;82.47;54.80;;;0.80;99.90;;;;;;4999593;28;20096;-75
2022/03/16 04:13:39;;;;;;;88.75;54.47;;;0.80;99.90;;;;;;4999908;28;21622;-75
2022/03/16 04:16:06;;;;;;;106.32;59.53;;;0.90;99.90;;;;;;4998886;28;20061;-68
2022/03/16 04:18:32;;;;;;;96.45;55.92;;;0.90;99.90;;;;;;4998869;28;20092;-72
2022/03/16 04:20:59;;;;;;;94.05;57.70;;;0.90;99.90;;;;;;4996450;28;20534;-66
2022/03/16 04:23:26;;;;;;;105.43;58.10;;;0.90;99.90;;;;;;5000746;28;20049;-67
2022/03/16 04:25:53;;;;;;;91.80;56.63;;;0.90;99.90;;;;;;5001372;28;20092;-68
2022/03/16 04:28:20;;;;;;;113.68;56.90;;;0.90;99.90;;;;;;5002962;28;20053;-68
2022/03/16 04:30:47;;;;;;;99.30;59.55;;;0.90;99.90;;;;;;4997773;28;20120;-71
2022/03/16 04:33:14;;;;;;;102.82;55.78;;;0.90;99.90;;;;;;4998190;28;20050;-78
2022/03/16 04:35:41;;;;;;;92.13;55.90;;;0.90;99.90;;;;;;5002654;28;20073;-66
2022/03/16 04:38:08;;;;;;;100.88;55.58;;;0.90;99.90;;;;;;5002953;28;20115;-69
2022/03/16 04:40:36;;;;;;;96.53;58.65;;;0.90;99.90;;;;;;5002443;28;20092;-69
2022/03/16 04:43:03;;;;;;;93.63;57.45;;;1.00;99.90;;;;;;5000933;28;20061;-66
2022/03/16 04:45:29;;;;;;;100.55;59.95;;;1.00;99.90;;;;;;5003000;28;20132;-70
2022/03/16 04:47:56;;;;;;;97.70;57.88;;;1.00;99.90;;;;;;5001942;28;20049;-70
2022/03/16 04:50:29;;;;;;;101.18;59.33;;;1.00;99.90;;;;;;5002750;28;20472;-71
2022/03/16 04:52:56;;;;;;;97.53;58.22;;;1.00;99.90;;;;;;5000763;28;20050;-70
2022/03/16 04:55:23;;;;;;;102.45;62.03;;;1.00;99.90;;;;;;5001513;28;20065;-73
2022/03/16 04:57:56;;;;;;;103.88;59.33;;;1.00;99.90;;;;;;5001616;28;20625;-71
2022/03/16 05:00:24;;;;;;;97.95;60.28;;;1.00;99.90;;;;;;5002400;28;20104;-72
2022/03/16 05:02:51;;;;;;;102.72;61.10;;;1.10;99.90;;;;;;4998785;28;21413;-68
2022/03/16 05:05:18;;;;;;;101.07;59.40;;;1.10;99.90;;;;;;5002166;28;20836;-72
2022/03/16 05:07:45;;;;;;;105.32;56.42;;;1.10;99.90;;;;;;4988653;28;20148;-70
2022/03/16 05:10:13;;;;;;;105.85;58.92;;;1.10;99.90;;;;;;4997753;28;20136;-69
2022/03/16 05:12:41;;;;;;;109.45;61.63;;;1.10;99.90;;;;;;5002808;28;20407;-69
2022/03/16 05:15:12;;;;;;;111.57;61.33;;;1.10;99.90;;;;;;5000378;28;20061;-70
2022/03/16 05:17:39;;;;;;;96.88;55.83;;;1.10;99.90;;;;;;5003495;28;20069;-74
2022/03/16 05:20:07;;;;;;;101.88;58.53;;;1.20;99.90;;;;;;5001574;28;20068;-76
2022/03/16 05:22:48;;;;;;;93.03;56.47;;;1.20;99.90;;;;;;5004508;28;20045;-75
2022/03/16 05:25:19;;;;;;;85.15;52.38;;;1.20;99.90;;;;;;4999393;28;20614;-73
2022/03/16 05:27:46;;;;;;;100.00;54.72;;;1.20;99.90;;;;;;5003149;28;20140;-66
2022/03/16 05:30:14;;;;;;;90.43;54.88;;;1.20;99.90;;;;;;4994014;28;20639;-72
2022/03/16 05:32:42;;;;;;;90.78;54.63;;;1.30;99.90;;;;;;4986279;28;20401;-74
2022/03/16 05:35:11;;;;;;;103.35;53.83;;;1.30;99.90;;;;;;4998443;28;20909;-70
2022/03/16 05:37:39;;;;;;;112.50;53.88;;;1.30;99.90;;;;;;4999542;28;20073;-71
2022/03/16 05:40:08;;;;;;;106.38;55.80;;;1.30;99.90;;;;;;5000255;28;20499;-68
2022/03/16 05:42:35;;;;;;;85.67;51.90;;;1.20;99.90;;;;;;5000442;28;20143;-69
2022/03/16 05:45:04;;;;;;;86.60;52.42;;;1.20;99.90;;;;;;5001491;28;20398;-67
2022/03/16 05:47:30;;;;;;;100.57;52.97;;;1.30;99.90;;;;;;4999498;28;20152;-69
2022/03/16 05:49:58;;;;;;;103.22;50.25;;;1.20;99.90;;;;;;4993260;28;20168;-72
2022/03/16 05:52:25;;;;;;;90.07;49.92;;;1.30;99.90;;;;;;5004458;28;20054;-74
2022/03/16 05:54:55;;;;;;;104.40;53.78;;;1.30;99.90;;;;;;4986620;28;20050;-68
2022/03/16 05:57:23;;;;;;;99.55;54.53;;;1.30;99.90;;;;;;4992351;28;20056;-70
2022/03/16 05:59:50;;;;;;;107.60;55.35;;;1.40;99.90;;;;;;5006847;28;20050;-70
2022/03/16 06:02:18;;;;;;;84.50;52.40;;;1.40;99.90;;;;;;5002786;28;20049;-69
2022/03/16 06:04:45;;;;;;;99.95;52.40;;;1.40;99.90;;;;;;4998592;28;20050;-73
2022/03/16 06:07:12;;;;;;;119.18;54.75;;;1.40;99.90;;;;;;5000083;28;20120;-73
2022/03/16 06:09:40;;;;;;;124.35;50.15;;;1.40;99.90;;;;;;4998544;28;20189;-68
2022/03/16 06:12:08;;;;;;;85.80;49.67;;;1.30;99.90;;;;;;5000003;28;20474;-70
2022/03/16 06:14:35;;;;;;;101.72;51.00;;;1.30;99.90;;;;;;4999870;28;20107;-69
2022/03/16 06:17:03;;;;;;;156.32;53.15;;;1.40;99.90;;;;;;4994394;28;20231;-72
2022/03/16 06:19:30;;;;;;;130.85;52.95;;;1.40;99.90;;;;;;4999877;28;20136;-71
2022/03/16 06:21:57;;;;;;;154.27;55.30;;;1.40;99.90;;;;;;4999862;28;20137;-67
2022/03/16 06:24:24;;;;;;;89.35;50.40;;;1.40;99.90;;;;;;4998937;28;20627;-68
2022/03/16 06:26:51;;;;;;;80.78;51.03;;;1.40;99.90;;;;;;4996720;28;20052;-70
2022/03/16 06:29:18;;;;;;;83.20;48.08;;;1.40;99.90;;;;;;5000552;28;20066;-67
2022/03/16 06:31:45;;;;;;;104.65;52.33;;;1.40;99.90;;;;;;5000553;28;20169;-67
2022/03/16 06:34:12;;;;;;;86.32;49.05;;;1.40;99.90;;;;;;5001066;28;20062;-68
2022/03/16 06:36:40;;;;;;;87.78;49.72;;;1.40;99.90;;;;;;5000356;28;20140;-68
2022/03/16 06:39:07;;;;;;;91.40;49.92;;;1.50;99.90;;;;;;4999106;28;20123;-66
2022/03/16 06:41:34;;;;;;;82.50;47.53;;;1.40;99.90;;;;;;5000495;28;20108;-70
2022/03/16 06:44:01;;;;;;;116.75;54.28;;;1.50;99.90;;;;;;5001829;28;20128;-67
2022/03/16 06:46:28;;;;;;;75.95;47.83;;;1.50;99.90;;;;;;5000778;28;20050;-69
2022/03/16 06:48:55;;;;;;;80.03;48.85;;;1.50;99.90;;;;;;4997230;28;20052;-71
2022/03/16 06:51:22;;;;;;;112.85;50.47;;;1.50;99.90;;;;;;4999796;28;20077;-72
2022/03/16 06:53:49;;;;;;;171.50;55.00;;;1.50;99.90;;;;;;4998931;28;20076;-74
2022/03/16 06:56:16;;;;;;;100.10;50.45;;;1.40;99.90;;;;;;4999338;28;20821;-68
2022/03/16 06:58:43;;;;;;;91.72;48.63;;;1.40;99.90;;;;;;4997737;28;20096;-67
2022/03/16 07:01:10;;;;;;;85.35;50.95;;;1.40;99.90;;;;;;4999420;28;20105;-67
2022/03/16 07:03:38;;;;;;;81.25;48.55;;;1.40;99.90;;;;;;4998099;28;20404;-68
2022/03/16 07:06:05;;;;;;;88.38;49.17;;;1.50;99.90;;;;;;4998175;28;20695;-69
2022/03/16 07:08:31;;;;;;;90.65;50.53;;;1.50;99.90;;;;;;4999033;28;20074;-67
2022/03/16 07:10:59;;;;;;;99.00;52.78;;;1.50;99.90;;;;;;4997172;28;20129;-70
2022/03/16 07:13:26;;;;;;;78.03;47.20;;;1.60;99.90;;;;;;4998721;28;20140;-66
2022/03/16 07:15:53;;;;;;;87.22;50.83;;;1.60;99.90;;;;;;4994815;28;20054;-67
2022/03/16 07:18:21;;;;;;;79.15;50.15;;;1.60;99.90;;;;;;4993529;28;20192;-75
2022/03/16 07:20:48;;;;;;;88.68;50.45;;;1.70;99.90;;;;;;4992021;28;20121;-67
2022/03/16 07:23:17;;;;;;;82.22;50.45;;;1.70;99.90;;;;;;4992687;28;20165;-72
2022/03/16 07:25:48;;;;;;;63.63;40.95;;;1.70;99.90;;;;;;4979497;28;20285;-68
2022/03/16 07:28:17;;;;;;;90.57;51.00;;;1.70;99.90;;;;;;4992093;28;20080;-67
2022/03/16 07:30:45;;;;;;;86.80;48.80;;;1.80;99.90;;;;;;4993117;28;20060;-69
2022/03/16 07:33:13;;;;;;;84.85;49.35;;;1.80;99.90;;;;;;4996155;28;20420;-68
2022/03/16 07:35:40;;;;;;;84.50;51.92;;;1.80;99.90;;;;;;4996996;28;20058;-70
2022/03/16 07:38:08;;;;;;;84.00;49.35;;;1.70;99.90;;;;;;4998201;28;20049;-66
2022/03/16 07:40:36;;;;;;;99.60;47.85;;;1.80;99.90;;;;;;4997708;28;20141;-68
2022/03/16 07:43:04;;;;;;;87.88;49.88;;;1.70;99.90;;;;;;4995652;28;20058;-68
2022/03/16 07:45:31;;;;;;;96.72;50.45;;;1.70;99.90;;;;;;4997830;28;20173;-66
2022/03/16 07:47:59;;;;;;;95.97;46.65;;;1.70;99.90;;;;;;4996472;28;20093;-66
2022/03/16 07:50:26;;;;;;;115.10;48.92;;;1.60;99.90;;;;;;4998061;28;20066;-69
2022/03/16 07:52:54;;;;;;;84.43;48.97;;;1.60;99.90;;;;;;4995748;28;20126;-67
2022/03/16 07:55:21;;;;;;;85.32;46.80;;;1.70;99.90;;;;;;4997599;28;20061;-66
2022/03/16 07:57:48;;;;;;;79.45;50.47;;;1.70;99.90;;;;;;4998159;28;20049;-66
2022/03/16 08:00:16;;;;;;;84.40;47.28;;;1.80;99.90;;;;;;4996295;28;20069;-69
2022/03/16 08:02:43;;;;;;;102.53;49.10;;;1.80;99.90;;;;;;4996367;28;20528;-67
2022/03/16 08:05:12;;;;;;;89.07;51.03;;;1.80;99.90;;;;;;4998838;28;20054;-70
2022/03/16 08:07:39;;;;;;;90.03;50.00;;;1.70;99.90;;;;;;4997308;28;20050;-71
2022/03/16 08:10:06;;;;;;;81.47;46.85;;;1.60;99.90;;;;;;4997242;28;20112;-69
2022/03/16 08:12:33;;;;;;;76.78;48.00;;;1.60;99.90;;;;;;4997557;28;20054;-70
2022/03/16 08:15:00;;;;;;;87.30;47.38;;;1.60;99.90;;;;;;4996999;28;20140;-68
2022/03/16 08:17:27;;;;;;;79.30;48.05;;;1.60;99.90;;;;;;4997506;28;20053;-66
2022/03/16 08:19:54;;;;;;;75.40;46.70;;;1.60;99.90;;;;;;4998687;28;20050;-70
2022/03/16 08:22:29;;;;;;;83.82;46.28;;;1.60;99.90;;;;;;4997516;28;20692;-69
2022/03/16 08:24:58;;;;;;;71.18;45.22;;;1.50;99.90;;;;;;4996247;28;20096;-67
2022/03/16 08:27:27;;;;;;;81.63;49.15;;;1.60;99.90;;;;;;4996445;28;20081;-67
2022/03/16 08:29:54;;;;;;;82.32;45.63;;;1.70;99.90;;;;;;4996867;28;20539;-74
2022/03/16 08:32:22;;;;;;;85.43;48.25;;;1.60;99.90;;;;;;4992816;28;20085;-72
2022/03/16 08:34:50;;;;;;;83.78;46.15;;;1.60;99.90;;;;;;4992071;28;20144;-70
2022/03/16 08:37:18;;;;;;;84.15;50.40;;;1.60;99.90;;;;;;4991234;28;20365;-73
2022/03/16 08:39:46;;;;;;;88.45;49.25;;;1.60;99.90;;;;;;4991215;28;20088;-69
2022/03/16 08:42:14;;;;;;;83.45;45.25;;;1.60;99.90;;;;;;4990711;28;20038;-71
2022/03/16 08:44:43;;;;;;;83.22;48.00;;;1.50;99.90;;;;;;4989653;28;20121;-69
2022/03/16 08:47:16;;;;;;;83.45;48.38;;;1.50;99.90;;;;;;4988279;28;20563;-67
2022/03/16 08:49:50;;;;;;;88.25;48.92;;;1.60;99.90;;;;;;4991295;28;20132;-73
2022/03/16 08:52:17;;;;;;;86.55;47.67;;;1.70;99.90;;;;;;4991926;28;20145;-66
2022/03/16 08:54:44;;;;;;;94.93;52.97;;;1.80;99.90;;;;;;4993406;28;20141;-70
2022/03/16 08:57:12;;;;;;;82.95;45.53;;;1.80;99.90;;;;;;4993450;28;20081;-70
2022/03/16 08:59:39;;;;;;;76.88;46.88;;;1.90;99.90;;;;;;4995383;28;20141;-66
2022/03/16 09:02:07;;;;;;;88.82;48.45;;;1.90;99.90;;;;;;4995084;28;20066;-67
2022/03/16 09:04:34;;;;;;;81.70;45.22;;;2.00;99.90;;;;;;4996705;28;20053;-70
2022/03/16 09:07:02;;;;;;;89.07;51.88;;;2.10;99.90;;;;;;4993573;28;20167;-69
2022/03/16 09:09:29;;;;;;;77.55;44.03;;;2.10;99.90;;;;;;4995229;28;20170;-69
2022/03/16 09:11:56;;;;;;;78.53;47.00;;;2.10;99.90;;;;;;4994318;28;20754;-70
2022/03/16 09:14:23;;;;;;;82.97;47.40;;;2.10;99.90;;;;;;4997296;28;20518;-72
2022/03/16 09:16:51;;;;;;;74.53;46.53;;;2.20;99.90;;;;;;4992928;28;20683;-71
2022/03/16 09:19:21;;;;;;;79.03;44.60;;;2.30;99.90;;;;;;4993776;28;20508;-74
2022/03/16 09:21:50;;;;;;;78.10;45.72;;;2.30;99.90;;;;;;4997828;28;20050;-70
2022/03/16 09:24:18;;;;;;;79.30;44.53;;;2.30;99.90;;;;;;4997184;28;20167;-70
2022/03/16 09:26:45;;;;;;;81.18;46.30;;;2.30;99.90;;;;;;4994596;28;20065;-69
2022/03/16 09:29:13;;;;;;;83.82;47.60;;;2.40;99.90;;;;;;4997822;28;20125;-72
2022/03/16 09:31:42;;;;;;;82.82;46.28;;;2.40;99.90;;;;;;4999402;28;20444;-71
2022/03/16 09:34:09;;;;;;;80.95;46.17;;;2.30;99.90;;;;;;4995106;28;20046;-70
2022/03/16 09:36:37;;;;;;;78.30;47.58;;;2.20;99.90;;;;;;4997095;28;20625;-71
2022/03/16 09:39:05;;;;;;;80.22;46.53;;;2.30;99.90;;;;;;4998607;28;20512;-69
2022/03/16 09:41:32;;;;;;;78.03;45.97;;;2.30;99.90;;;;;;4993081;28;20077;-72
2022/03/16 09:44:04;;;;;;;77.00;48.75;;;2.30;99.90;;;;;;4995613;28;20058;-71
2022/03/16 09:46:33;;;;;;;77.22;45.97;;;2.40;99.90;;;;;;4992074;28;20678;-72
2022/03/16 09:49:01;;;;;;;76.30;42.80;;;2.40;99.90;;;;;;4993845;28;20046;-73
2022/03/16 09:51:34;;;;;;;83.30;46.83;;;2.40;99.90;;;;;;4993627;28;20072;-64
2022/03/16 09:54:08;;;;;;;73.90;42.75;;;2.30;99.90;;;;;;4995770;28;21420;-68
2022/03/16 09:56:36;;;;;;;86.68;44.53;;;2.40;99.90;;;;;;4995397;28;20645;-70
2022/03/16 09:59:03;;;;;;;79.95;41.83;;;2.50;99.90;;;;;;4993573;28;20143;-67
2022/03/16 10:01:30;;;;;;;79.07;45.72;;;2.50;99.90;;;;;;4995691;28;20144;-70
2022/03/16 10:04:01;;;;;;;82.05;46.20;;;2.50;99.90;;;;;;4991909;28;20057;-68
2022/03/16 10:06:28;;;;;;;74.28;42.53;;;2.60;99.90;;;;;;4991376;28;20046;-70
2022/03/16 10:14:26;;;;;;;76.00;46.00;;;2.40;99.90;;;;;;4993483;28;20081;-70
2022/03/16 10:19:52;;;;;;;75.85;43.40;;;2.50;99.90;;;;;;4987386;28;20695;-68
2022/03/16 10:22:26;;;;;;;76.32;44.25;;;2.60;99.90;;;;;;4989728;28;20150;-72
2022/03/16 10:25:05;;;;;;;71.45;43.03;;;2.60;99.90;;;;;;4989332;28;20422;-70
2022/03/16 10:27:37;;;;;;;84.90;47.03;;;2.60;99.90;;;;;;4989609;28;20144;-73
2022/03/16 10:30:08;;;;;;;87.43;46.67;;;2.80;99.90;;;;;;4992900;28;20507;-69
2022/03/16 10:32:52;;;;;;;89.20;46.70;;;2.80;99.90;;;;;;4992306;28;20042;-70
2022/03/16 10:35:19;;;;;;;77.93;43.92;;;2.90;99.90;;;;;;4989074;28;20167;-71
2022/03/16 10:37:47;;;;;;;73.75;42.10;;;3.00;99.90;;;;;;4982896;28;20133;-70
2022/03/16 10:40:20;;;;;;;87.25;45.40;;;3.00;99.90;;;;;;4991895;28;20053;-70
2022/03/16 10:48:22;;;;;;;88.40;43.72;;;2.90;99.90;;;;;;4989862;28;20476;-71
2022/03/16 10:50:55;;;;;;;83.20;45.22;;;2.80;99.90;;;;;;4988413;28;20046;-67
2022/03/16 10:53:29;;;;;;;113.88;48.63;;;2.70;99.90;;;;;;4989990;28;20193;-69
2022/03/16 10:55:59;;;;;;;111.60;45.05;;;2.60;99.90;;;;;;4990408;28;20061;-71
2022/03/16 10:58:27;;;;;;;81.07;41.28;;;2.50;99.90;;;;;;4991702;28;20042;-71
2022/03/16 11:00:56;;;;;;;84.63;43.90;;;2.50;99.90;;;;;;4987713;28;20527;-74
2022/03/16 11:03:26;;;;;;;81.93;43.33;;;2.50;99.90;;;;;;4989795;28;20086;-68
2022/03/16 11:05:55;;;;;;;78.40;42.15;;;2.50;99.90;;;;;;4990140;28;20085;-68
2022/03/16 11:08:25;;;;;;;77.70;42.03;;;2.60;99.90;;;;;;4989974;28;20685;-67
2022/03/16 11:10:52;;;;;;;87.70;42.78;;;2.70;99.90;;;;;;4988642;28;20058;-71
2022/03/16 11:13:30;;;;;;;82.55;43.08;;;2.70;99.90;;;;;;4989660;28;20057;-65
2022/03/16 11:15:59;;;;;;;85.40;43.05;;;2.50;99.90;;;;;;4989127;28;20727;-71
2022/03/16 11:18:27;;;;;;;102.65;43.95;;;2.50;99.90;;;;;;4988227;28;20768;-68
2022/03/16 11:21:15;;;;;;;72.93;40.80;;;2.60;99.90;;;;;;4987820;28;20591;-66
2022/03/16 11:26:45;;;;;;;87.93;45.05;;;2.60;99.90;;;;;;4991687;28;20127;-69
2022/03/16 11:29:20;;;;;;;80.80;43.25;;;2.70;99.90;;;;;;4985483;28;20115;-70
2022/03/16 11:31:48;;;;;;;99.38;45.45;;;2.60;99.90;;;;;;4989666;28;20135;-66
2022/03/16 11:34:23;;;;;;;102.43;43.05;;;2.80;99.90;;;;;;4990393;28;20200;-70
2022/03/16 11:37:05;;;;;;;78.00;38.83;;;2.90;99.90;;;;;;4986583;28;20232;-68
2022/03/16 11:39:44;;;;;;;86.75;42.30;;;3.10;99.90;;;;;;4991266;28;20174;-66
2022/03/16 11:42:15;;;;;;;87.20;41.33;;;2.80;99.90;;;;;;4991701;28;20061;-73
2022/03/16 11:44:43;;;;;;;75.50;39.67;;;2.70;99.90;;;;;;4992039;28;20054;-65
2022/03/16 11:47:10;;;;;;;71.20;38.40;;;2.80;99.90;;;;;;4985672;28;20054;-73
2022/03/16 11:49:41;;;;;;;77.05;42.85;;;2.90;99.90;;;;;;4990934;28;20144;-72
2022/03/16 11:52:10;;;;;;;;;;;2.90;99.90;;;;;;4992179;28;20096;-70
2022/03/16 11:54:41;;;;;;;90.10;42.28;;;2.80;99.90;;;;;;4993581;28;20122;-70
2022/03/16 11:57:09;;;;;;;81.82;42.88;;;2.60;99.90;;;;;;4989847;28;20049;-69
2022/03/16 11:59:44;;;;;;;78.35;40.10;;;2.60;99.90;;;;;;4986698;28;20148;-70
2022/03/16 12:02:27;;;;;;;113.47;43.22;;;2.60;99.90;;;;;;4992004;28;20220;-65
2022/03/16 12:05:00;;;;;;;81.70;44.25;;;2.40;99.90;;;;;;4991476;28;20135;-68
2022/03/16 12:07:34;;;;;;;79.07;44.83;;;2.50;99.90;;;;;;4992118;28;20123;-68
2022/03/16 12:10:08;;;;;;;93.78;42.17;;;2.60;99.90;;;;;;4989939;28;20165;-67
2022/03/16 12:15:26;;;;;;;83.07;43.03;;;2.70;99.90;;;;;;4991943;28;20073;-69
2022/03/16 12:17:56;;;;;;;82.88;39.50;;;2.80;99.90;;;;;;4989261;28;20049;-72
2022/03/16 12:20:23;;;;;;;74.30;40.65;;;2.90;99.90;;;;;;4992964;28;20586;-65
2022/03/16 12:22:58;;;;;;;90.93;43.75;;;2.90;99.90;;;;;;4985350;28;20152;-71
2022/03/16 12:25:27;;;;;;;89.80;45.72;;;2.80;99.90;;;;;;4990900;28;20195;-69
2022/03/16 12:30:54;;;;;;;88.07;43.90;;;3.10;99.90;;;;;;4990507;28;20042;-67
2022/03/16 12:33:24;;;;;;;74.13;41.33;;;3.10;99.90;;;;;;4986980;28;20836;-67
2022/03/16 12:35:53;;;;;;;68.30;39.15;;;3.00;99.90;;;;;;4988397;28;21470;-69
2022/03/16 12:38:22;;;;;;;82.43;42.60;;;3.10;99.90;;;;;;4992713;28;20626;-69
2022/03/16 12:43:37;;;;;;;107.32;44.60;;;3.00;99.90;;;;;;4993683;28;20104;-64
2022/03/16 12:46:09;;;;;;;97.63;42.40;;;2.80;99.90;;;;;;4991975;28;20126;-68
2022/03/16 12:48:36;;;;;;;127.60;50.72;;;2.70;99.90;;;;;;4989880;28;21369;-70
2022/03/16 12:51:04;;;;;;;97.38;45.50;;;2.70;99.90;;;;;;4991559;28;20132;-70
2022/03/16 12:53:58;;;;;;;96.88;43.45;;;2.50;99.90;;;;;;4993109;28;20542;-68
2022/03/16 12:56:24;;;;;;;110.40;46.25;;;2.60;99.90;;;;;;4995122;28;20196;-69
2022/03/16 12:58:55;;;;;;;92.78;46.25;;;2.50;99.90;;;;;;4994075;28;20836;-66
2022/03/16 13:01:22;;;;;;;;;;;2.60;99.90;;;;;;4997436;28;20065;-71
2022/03/16 13:04:01;;;;;;;117.53;43.35;;;2.50;99.90;;;;;;4996632;28;20880;-70
2022/03/16 13:06:33;;;;;;;90.72;44.95;;;2.50;99.90;;;;;;4995119;28;20137;-70